Time;durP1;ratioP1;P1;durP2;ratioP2;P2;SDS_P1;SDS_P2;PMS_P1;PMS_P2;Temp;Humidity;BMP_temperature;BMP_pressure;BME280_temperature;BME280_humidity;BME280_pressure;Samples;Min_cycle;Max_cycle;Signal;HPM_P1;HPM_P2
2023/12/03 00:00:42;;;;;;;10.87;8.87;;;;;;;-1.71;100.00;96981.28;5087525;28;20258;-52
2023/12/03 00:03:09;;;;;;;11.27;9.20;;;;;;;-1.82;100.00;96989.50;5082373;28;20278;-53
2023/12/03 00:05:36;;;;;;;10.33;8.93;;;;;;;-1.80;100.00;96990.25;5078325;28;20299;-53
2023/12/03 00:08:03;;;;;;;9.73;8.43;;;;;;;-1.76;100.00;96993.59;5080369;28;20305;-53
2023/12/03 00:10:30;;;;;;;9.97;8.60;;;;;;;-1.65;100.00;96996.59;5078462;28;20233;-52
2023/12/03 00:12:57;;;;;;;10.87;8.77;;;;;;;-1.67;100.00;96993.25;5079575;28;20308;-52
2023/12/03 00:15:26;;;;;;;12.27;9.07;;;;;;;-1.68;100.00;97001.91;5078010;28;20276;-53
2023/12/03 00:17:53;;;;;;;11.73;9.50;;;;;;;-1.70;100.00;97009.72;5089818;28;20206;-54
2023/12/03 00:20:19;;;;;;;10.90;8.90;;;;;;;-1.62;100.00;97010.28;5081637;28;20221;-52
2023/12/03 00:22:46;;;;;;;10.33;8.87;;;;;;;-1.64;100.00;96998.28;5087161;28;20222;-51
2023/12/03 00:25:12;;;;;;;10.03;8.80;;;;;;;-1.72;100.00;97005.53;5076056;28;20244;-52
2023/12/03 00:27:39;;;;;;;10.57;9.17;;;;;;;-1.71;100.00;97007.22;5078617;28;20242;-51
2023/12/03 00:30:07;;;;;;;11.03;9.13;;;;;;;-1.69;100.00;97008.00;5085339;28;20216;-53
2023/12/03 00:32:35;;;;;;;13.23;9.77;;;;;;;-1.71;100.00;97002.03;5087411;28;20218;-51
2023/12/03 00:35:02;;;;;;;10.77;9.20;;;;;;;-1.72;100.00;97000.34;5085884;28;20241;-52
2023/12/03 00:37:28;;;;;;;11.73;9.43;;;;;;;-1.63;100.00;97006.00;5084908;28;20210;-52
2023/12/03 00:39:55;;;;;;;11.50;9.30;;;;;;;-1.69;100.00;97006.25;5077887;28;20214;-53
2023/12/03 00:42:21;;;;;;;12.20;9.67;;;;;;;-1.66;100.00;97008.72;5078582;28;20216;-52
2023/12/03 00:44:49;;;;;;;11.40;9.77;;;;;;;-1.63;100.00;97002.59;5067060;28;20196;-52
2023/12/03 00:47:16;;;;;;;11.60;9.53;;;;;;;-1.61;100.00;97003.34;5078889;28;20194;-53
2023/12/03 00:49:44;;;;;;;12.23;10.33;;;;;;;-1.67;100.00;97014.81;5075466;28;20515;-54
2023/12/03 00:52:10;;;;;;;11.93;9.43;;;;;;;-1.60;100.00;97015.44;5075832;28;20208;-51
2023/12/03 00:54:37;;;;;;;11.20;9.90;;;;;;;-1.61;100.00;97021.50;5075757;28;20244;-53
2023/12/03 00:57:04;;;;;;;13.67;10.90;;;;;;;-1.68;100.00;97023.50;5074827;28;20640;-52
2023/12/03 00:59:33;;;;;;;12.17;10.13;;;;;;;-1.62;100.00;97030.19;5075274;28;20210;-53
2023/12/03 01:02:00;;;;;;;13.77;10.73;;;;;;;-1.66;100.00;97031.19;5075635;28;20635;-52
2023/12/03 01:04:27;;;;;;;14.10;10.17;;;;;;;-1.48;100.00;97030.47;5075680;28;20208;-52
2023/12/03 01:06:55;;;;;;;12.17;10.30;;;;;;;-1.43;100.00;97028.56;5077277;28;20545;-54
2023/12/03 01:09:24;;;;;;;11.73;9.83;;;;;;;-1.50;100.00;97037.50;5075554;28;20213;-53
2023/12/03 01:11:54;;;;;;;12.00;9.57;;;;;;;-1.40;100.00;97041.41;5075246;28;20207;-52
2023/12/03 01:14:21;;;;;;;13.47;10.40;;;;;;;-1.43;100.00;97041.53;5075115;28;20326;-53
2023/12/03 01:16:47;;;;;;;11.40;9.83;;;;;;;-1.47;100.00;97046.88;5074893;28;20310;-52
2023/12/03 01:19:14;;;;;;;10.50;9.40;;;;;;;-1.44;100.00;97050.22;5068580;28;20636;-51
2023/12/03 01:21:41;;;;;;;11.50;9.80;;;;;;;-1.39;100.00;97050.88;5075311;28;20631;-52
2023/12/03 01:24:09;;;;;;;10.93;9.50;;;;;;;-1.47;100.00;97054.66;5067549;28;20302;-52
2023/12/03 01:26:36;;;;;;;10.93;9.17;;;;;;;-1.43;100.00;97054.50;5067560;28;20211;-53
2023/12/03 01:29:02;;;;;;;11.07;8.93;;;;;;;-1.42;100.00;97053.59;5075190;28;20212;-53
2023/12/03 01:31:30;;;;;;;11.00;9.10;;;;;;;-1.54;100.00;97057.50;5069359;28;20293;-52
2023/12/03 01:33:57;;;;;;;12.03;9.27;;;;;;;-1.56;100.00;97061.09;5074438;28;20317;-53
2023/12/03 01:36:24;;;;;;;10.60;8.83;;;;;;;-1.52;100.00;97065.22;5068851;28;20299;-53
2023/12/03 01:38:50;;;;;;;12.37;9.50;;;;;;;-1.45;100.00;97065.84;5074136;28;20299;-52
2023/12/03 01:41:19;;;;;;;11.33;9.17;;;;;;;-1.46;100.00;97059.81;5076296;28;20225;-52
2023/12/03 01:43:50;;;;;;;11.37;9.07;;;;;;;-1.62;100.00;97069.06;5078991;28;20288;-53
2023/12/03 01:46:17;;;;;;;10.33;8.83;;;;;;;-1.55;100.00;97070.53;5078037;28;20203;-53
2023/12/03 01:48:44;;;;;;;11.13;9.57;;;;;;;-1.64;100.00;97069.16;5073992;28;20210;-53
2023/12/03 01:51:10;;;;;;;11.20;9.03;;;;;;;-1.60;100.00;97077.66;5074817;28;20284;-52
2023/12/03 01:53:39;;;;;;;12.43;9.33;;;;;;;-1.61;100.00;97075.97;5074213;28;20742;-52
2023/12/03 01:56:07;;;;;;;12.27;9.07;;;;;;;-1.48;100.00;97074.56;5074897;28;20305;-53
2023/12/03 01:58:35;;;;;;;11.23;9.47;;;;;;;-1.49;100.00;97075.50;5074998;28;20256;-52
2023/12/03 02:01:02;;;;;;;10.43;9.13;;;;;;;-1.52;100.00;97068.66;5074806;28;20236;-52
2023/12/03 02:03:29;;;;;;;10.13;8.60;;;;;;;-1.53;100.00;97074.78;5074409;28;20545;-51
2023/12/03 02:06:04;;;;;;;12.37;9.17;;;;;;;-1.58;100.00;97075.84;5074625;28;20206;-51
2023/12/03 02:08:30;;;;;;;11.63;9.27;;;;;;;-1.54;100.00;97078.25;5074136;28;20207;-51
2023/12/03 02:10:57;;;;;;;9.80;8.80;;;;;;;-1.54;100.00;97080.00;5075960;28;20221;-53
2023/12/03 02:13:26;;;;;;;13.03;8.73;;;;;;;-1.58;100.00;97076.69;5075954;28;20232;-52
2023/12/03 02:15:54;;;;;;;11.40;8.63;;;;;;;-1.69;100.00;97084.03;5075588;28;20270;-53
2023/12/03 02:18:21;;;;;;;11.00;9.80;;;;;;;-1.68;100.00;97090.06;5074882;28;20211;-53
2023/12/03 02:20:47;;;;;;;10.87;8.63;;;;;;;-1.65;100.00;97084.75;5076677;28;20298;-52
2023/12/03 02:23:15;;;;;;;10.57;8.40;;;;;;;-1.63;100.00;97080.38;5084066;28;20197;-54
2023/12/03 02:25:42;;;;;;;10.00;8.60;;;;;;;-1.61;100.00;97084.59;5084126;28;20304;-54
2023/12/03 02:28:09;;;;;;;10.30;9.13;;;;;;;-1.66;100.00;97083.06;5084626;28;20645;-52
2023/12/03 02:30:36;;;;;;;12.40;8.70;;;;;;;-1.61;100.00;97091.50;5083168;28;20206;-53
2023/12/03 02:33:05;;;;;;;11.00;8.93;;;;;;;-1.69;100.00;97083.19;5079812;28;20220;-54
2023/12/03 02:35:32;;;;;;;9.57;8.30;;;;;;;-1.71;100.00;97091.03;5071101;28;20207;-53
2023/12/03 02:38:00;;;;;;;9.70;8.27;;;;;;;-1.72;100.00;97088.47;5077325;28;20548;-53
2023/12/03 02:40:32;;;;;;;13.47;8.70;;;;;;;-1.76;100.00;97082.56;5079105;28;20607;-51
2023/12/03 02:42:59;;;;;;;8.67;7.77;;;;;;;-1.83;100.00;97085.44;5080310;28;20539;-53
2023/12/03 02:45:25;;;;;;;9.77;8.10;;;;;;;-1.84;100.00;97086.38;5072971;28;20196;-52
2023/12/03 02:47:52;;;;;;;11.43;8.67;;;;;;;-1.81;100.00;97084.50;5080538;28;20224;-54
2023/12/03 02:50:20;;;;;;;8.47;7.57;;;;;;;-1.89;100.00;97089.13;5076948;28;20289;-51
2023/12/03 02:52:47;;;;;;;9.73;8.00;;;;;;;-1.83;100.00;97088.88;5076433;28;20202;-54
2023/12/03 02:55:13;;;;;;;10.30;8.60;;;;;;;-1.90;100.00;97099.53;5076923;28;20226;-52
2023/12/03 02:57:41;;;;;;;9.50;8.40;;;;;;;-1.92;100.00;97090.97;5077696;28;20305;-53
2023/12/03 03:00:09;;;;;;;9.27;7.53;;;;;;;-1.90;100.00;97092.59;5081912;28;20238;-52
2023/12/03 03:02:36;;;;;;;9.67;7.70;;;;;;;-1.97;100.00;97085.09;5076929;28;20233;-51
2023/12/03 03:05:03;;;;;;;9.57;8.00;;;;;;;-2.05;100.00;97090.56;5090538;28;20290;-51
2023/12/03 03:07:30;;;;;;;9.80;8.37;;;;;;;-2.23;100.00;97089.50;5087307;28;20261;-52
2023/12/03 03:09:56;;;;;;;8.93;7.67;;;;;;;-2.16;100.00;97097.91;5088315;28;20203;-52
2023/12/03 03:12:23;;;;;;;8.83;7.93;;;;;;;-2.14;100.00;97103.88;5087765;28;20300;-53
2023/12/03 03:14:51;;;;;;;8.73;7.60;;;;;;;-2.22;100.00;97100.69;5090829;28;20344;-53
2023/12/03 03:17:17;;;;;;;9.87;7.63;;;;;;;-2.27;100.00;97100.88;5093919;28;20206;-53
2023/12/03 03:19:44;;;;;;;11.17;8.27;;;;;;;-2.35;100.00;97097.72;5086586;28;20206;-54
2023/12/03 03:22:12;;;;;;;9.10;8.03;;;;;;;-2.40;100.00;97099.59;5089014;28;20202;-52
2023/12/03 03:24:39;;;;;;;8.30;7.40;;;;;;;-2.44;100.00;97103.19;5081319;28;20214;-53
2023/12/03 03:27:06;;;;;;;8.57;7.20;;;;;;;-2.45;100.00;97103.28;5093377;28;20206;-52
2023/12/03 03:29:33;;;;;;;8.73;7.20;;;;;;;-2.47;100.00;97105.91;5089674;28;20215;-51
2023/12/03 03:32:00;;;;;;;9.13;7.60;;;;;;;-2.54;100.00;97096.66;5086461;28;20640;-53
2023/12/03 03:34:28;;;;;;;9.40;7.60;;;;;;;-2.54;100.00;97096.66;5085745;28;20227;-52
2023/12/03 03:36:55;;;;;;;7.20;6.50;;;;;;;-2.57;100.00;97101.94;5084409;28;20277;-52
2023/12/03 03:39:22;;;;;;;7.80;6.90;;;;;;;-2.65;100.00;97104.78;5093934;28;20210;-52
2023/12/03 03:41:50;;;;;;;10.53;6.93;;;;;;;-2.66;100.00;97105.66;5085587;28;20210;-52
2023/12/03 03:44:16;;;;;;;8.57;7.10;;;;;;;-2.71;100.00;97106.75;5081456;28;20275;-52
2023/12/03 03:46:43;;;;;;;8.17;6.93;;;;;;;-2.74;100.00;97104.25;5082921;28;20682;-53
2023/12/03 03:49:13;;;;;;;8.50;7.60;;;;;;;-2.83;100.00;97114.91;5079918;28;20707;-50
2023/12/03 03:51:40;;;;;;;7.97;6.30;;;;;;;-2.98;100.00;97118.00;5075792;28;20651;-51
2023/12/03 03:54:06;;;;;;;7.87;7.07;;;;;;;-2.99;100.00;97116.31;5075250;28;20657;-52
2023/12/03 03:56:33;;;;;;;7.93;6.93;;;;;;;-3.11;100.00;97110.63;5075562;28;20667;-53
2023/12/03 03:59:00;;;;;;;9.30;7.07;;;;;;;-3.17;100.00;97122.91;5075446;28;20289;-51
2023/12/03 04:01:26;;;;;;;7.83;6.60;;;;;;;-3.17;100.00;97120.31;5075290;28;20266;-54
2023/12/03 04:03:53;;;;;;;7.53;6.60;;;;;;;-3.21;100.00;97123.91;5075280;28;20233;-53
2023/12/03 04:06:21;;;;;;;7.33;6.30;;;;;;;-3.33;100.00;97124.31;5075646;28;20291;-51
2023/12/03 04:08:49;;;;;;;7.80;6.80;;;;;;;-3.60;100.00;97129.41;5074609;28;20218;-52
2023/12/03 04:11:16;;;;;;;6.43;5.77;;;;;;;-3.57;100.00;97124.16;5075655;28;20207;-53
2023/12/03 04:13:42;;;;;;;7.60;6.77;;;;;;;-3.76;100.00;97120.44;5075243;28;20221;-54
2023/12/03 04:16:10;;;;;;;7.17;5.90;;;;;;;-3.98;100.00;97121.09;5075367;28;20217;-53
2023/12/03 04:18:39;;;;;;;8.30;6.57;;;;;;;-3.88;100.00;97131.09;5075387;28;20297;-51
2023/12/03 04:21:15;;;;;;;6.80;6.00;;;;;;;-3.78;100.00;97124.78;5075215;28;20536;-52
2023/12/03 04:23:46;;;;;;;7.43;6.40;;;;;;;-3.79;100.00;97135.19;5074844;28;20202;-51
2023/12/03 04:26:14;;;;;;;7.53;6.33;;;;;;;-3.73;100.00;97127.25;5075055;28;20233;-52
2023/12/03 04:28:41;;;;;;;6.80;5.97;;;;;;;-3.68;100.00;97138.25;5075105;28;20253;-51
2023/12/03 04:31:16;;;;;;;6.97;5.83;;;;;;;-3.80;100.00;97134.31;5074811;28;20210;-53
2023/12/03 04:33:43;;;;;;;5.97;5.37;;;;;;;-3.87;100.00;97140.56;5074871;28;20592;-53
2023/12/03 04:36:11;;;;;;;6.97;6.27;;;;;;;-3.83;100.00;97138.75;5075119;28;20207;-52
2023/12/03 04:38:37;;;;;;;8.07;6.27;;;;;;;-3.87;100.00;97143.16;5074382;28;20653;-52
2023/12/03 04:41:06;;;;;;;6.97;6.20;;;;;;;-3.95;100.00;97144.25;5074595;28;20611;-53
2023/12/03 04:43:33;;;;;;;6.97;5.90;;;;;;;-4.02;100.00;97144.41;5074814;28;20210;-52
2023/12/03 04:46:03;;;;;;;7.00;5.93;;;;;;;-3.91;100.00;97148.44;5081022;28;20198;-53
2023/12/03 04:48:30;;;;;;;8.23;6.10;;;;;;;-3.95;100.00;97149.41;5078937;28;20289;-51
2023/12/03 04:50:57;;;;;;;6.50;5.63;;;;;;;-3.95;100.00;97152.00;5087326;28;20281;-52
2023/12/03 04:53:23;;;;;;;6.83;5.70;;;;;;;-3.98;100.00;97149.50;5086088;28;20309;-52
2023/12/03 04:55:50;;;;;;;6.40;5.60;;;;;;;-4.05;100.00;97151.41;5087597;28;20271;-52
2023/12/03 04:58:18;;;;;;;7.13;5.83;;;;;;;-4.09;100.00;97154.97;5075397;28;20220;-53
2023/12/03 05:00:45;;;;;;;6.83;5.90;;;;;;;-3.99;100.00;97158.97;5074458;28;20234;-53
2023/12/03 05:03:11;;;;;;;6.80;5.80;;;;;;;-4.15;100.00;97163.75;5074633;28;20206;-53
2023/12/03 05:05:38;;;;;;;6.00;5.37;;;;;;;-4.45;100.00;97169.69;5074611;28;20604;-52
2023/12/03 05:08:07;;;;;;;7.30;5.63;;;;;;;-4.43;100.00;97173.09;5074131;28;20214;-53
2023/12/03 05:10:36;;;;;;;6.53;5.60;;;;;;;-4.30;100.00;97178.78;5074720;28;20576;-51
2023/12/03 05:13:03;;;;;;;6.73;5.53;;;;;;;-4.47;100.00;97180.97;5074497;28;20631;-53
2023/12/03 05:15:34;;;;;;;7.10;6.27;;;;;;;-4.46;100.00;97169.75;5074513;28;20226;-51
2023/12/03 05:18:02;;;;;;;7.13;5.93;;;;;;;-4.35;100.00;97173.72;5074251;28;20526;-52
2023/12/03 05:20:30;;;;;;;6.03;5.37;;;;;;;-4.28;100.00;97177.84;5074979;28;20205;-52
2023/12/03 05:22:57;;;;;;;7.30;5.77;;;;;;;-4.24;100.00;97176.88;5075166;28;20651;-52
2023/12/03 05:25:23;;;;;;;6.37;5.63;;;;;;;-4.24;100.00;97169.13;5074352;28;20212;-51
2023/12/03 05:27:50;;;;;;;6.43;5.83;;;;;;;-4.25;100.00;97182.91;5073999;28;20293;-52
2023/12/03 05:30:19;;;;;;;6.10;5.43;;;;;;;-4.22;100.00;97182.88;5074124;28;20206;-51
2023/12/03 05:32:48;;;;;;;5.80;5.20;;;;;;;-4.20;100.00;97181.06;5074535;28;20535;-52
2023/12/03 05:35:17;;;;;;;6.30;5.47;;;;;;;-4.21;100.00;97184.53;5073969;28;20685;-53
2023/12/03 05:37:43;;;;;;;6.50;5.63;;;;;;;-4.32;100.00;97186.56;5073637;28;20638;-53
2023/12/03 05:40:11;;;;;;;6.47;5.63;;;;;;;-4.30;100.00;97192.53;5074385;28;20294;-52
2023/12/03 05:42:38;;;;;;;6.40;5.60;;;;;;;-4.27;100.00;97195.03;5077981;28;20218;-53
2023/12/03 05:45:06;;;;;;;6.17;5.03;;;;;;;-4.28;100.00;97193.34;5067858;28;20589;-51
2023/12/03 05:47:32;;;;;;;6.07;5.27;;;;;;;-4.28;100.00;97195.91;5080127;28;20206;-53
2023/12/03 05:50:02;;;;;;;6.97;5.60;;;;;;;-4.31;100.00;97196.00;5074064;28;20214;-53
2023/12/03 05:52:31;;;;;;;6.97;5.67;;;;;;;-4.37;100.00;97193.59;5102941;28;20211;-51
2023/12/03 05:54:58;;;;;;;7.17;5.93;;;;;;;-4.41;100.00;97198.84;5074028;28;20362;-51
2023/12/03 05:57:25;;;;;;;7.03;5.57;;;;;;;-4.46;100.00;97206.72;5073851;28;20657;-52
2023/12/03 05:59:52;;;;;;;6.43;5.57;;;;;;;-4.37;100.00;97203.91;5073851;28;20320;-53
2023/12/03 06:02:20;;;;;;;6.90;5.83;;;;;;;-4.53;100.00;97202.59;5074111;28;20596;-51
2023/12/03 06:04:47;;;;;;;6.80;5.70;;;;;;;-4.66;100.00;97217.53;5078030;28;20213;-53
2023/12/03 06:07:15;;;;;;;7.00;5.43;;;;;;;-4.57;100.00;97212.13;5077659;28;20212;-53
2023/12/03 06:09:42;;;;;;;6.17;5.27;;;;;;;-4.46;100.00;97208.47;5077433;28;20694;-52
2023/12/03 06:12:09;;;;;;;6.33;5.37;;;;;;;-4.73;100.00;97217.72;5077722;28;20293;-51
2023/12/03 06:14:36;;;;;;;7.03;5.50;;;;;;;-4.66;100.00;97217.53;5077412;28;20538;-52
2023/12/03 06:17:03;;;;;;;6.03;5.40;;;;;;;-4.70;100.00;97209.91;5077704;28;20647;-54
2023/12/03 06:19:29;;;;;;;6.23;5.27;;;;;;;-4.64;100.00;97222.69;5077521;28;20213;-55
2023/12/03 06:21:57;;;;;;;6.73;5.37;;;;;;;-4.59;100.00;97219.09;5077423;28;20203;-53
2023/12/03 06:24:26;;;;;;;6.40;5.70;;;;;;;-4.74;100.00;97224.59;5076819;28;20217;-53
2023/12/03 06:26:55;;;;;;;6.70;6.00;;;;;;;-4.74;100.00;97228.91;5077933;28;20631;-53
2023/12/03 06:29:21;;;;;;;8.37;6.07;;;;;;;-4.71;100.00;97234.84;5077483;28;20218;-53
2023/12/03 06:31:48;;;;;;;5.77;5.17;;;;;;;-4.67;100.00;97235.63;5077182;28;20217;-53
2023/12/03 06:34:15;;;;;;;9.93;8.07;;;;;;;-4.66;100.00;97234.75;5077528;28;20214;-52
2023/12/03 06:36:43;;;;;;;8.30;7.40;;;;;;;-4.63;100.00;97232.09;5076840;28;20232;-52
2023/12/03 06:39:13;;;;;;;6.60;6.00;;;;;;;-4.70;100.00;97240.88;5078592;28;20212;-52
2023/12/03 06:41:41;;;;;;;8.73;6.10;;;;;;;-4.71;100.00;97245.16;5084750;28;20203;-53
2023/12/03 06:44:09;;;;;;;6.23;5.63;;;;;;;-4.74;100.00;97240.09;5086752;28;20640;-53
2023/12/03 06:46:40;;;;;;;6.00;5.40;;;;;;;-4.74;100.00;97239.22;5088503;28;20198;-54
2023/12/03 06:49:07;;;;;;;7.10;5.93;;;;;;;-4.72;100.00;97240.91;5088922;28;20244;-52
2023/12/03 06:51:35;;;;;;;6.33;5.73;;;;;;;-4.79;100.00;97241.94;5087644;28;20265;-51
2023/12/03 06:54:02;;;;;;;6.43;5.10;;;;;;;-4.71;100.00;97241.78;5075528;28;20211;-52
2023/12/03 06:56:29;;;;;;;5.23;4.73;;;;;;;-4.72;100.00;97235.75;5075843;28;20238;-52
2023/12/03 06:58:57;;;;;;;7.10;5.93;;;;;;;-4.65;100.00;97234.72;5077471;28;20206;-53
2023/12/03 07:01:24;;;;;;;6.27;5.30;;;;;;;-4.67;100.00;97240.78;5077010;28;20257;-52
2023/12/03 07:03:51;;;;;;;7.10;5.17;;;;;;;-4.80;100.00;97236.81;5077275;28;20210;-54
2023/12/03 07:06:17;;;;;;;5.90;5.07;;;;;;;-4.83;100.00;97239.47;5076862;28;20285;-53
2023/12/03 07:08:48;;;;;;;7.87;5.93;;;;;;;-4.85;100.00;97236.09;5077696;28;20296;-54
2023/12/03 07:11:15;;;;;;;6.53;5.13;;;;;;;-4.98;100.00;97239.81;5086351;28;20236;-53
2023/12/03 07:13:43;;;;;;;6.13;5.53;;;;;;;-5.09;100.00;97237.47;5086707;28;20210;-54
2023/12/03 07:16:11;;;;;;;5.90;5.30;;;;;;;-4.87;100.00;97248.16;5083223;28;20245;-53
2023/12/03 07:18:41;;;;;;;7.53;5.90;;;;;;;-4.83;100.00;97250.63;5079337;28;20241;-54
2023/12/03 07:21:09;;;;;;;6.90;5.50;;;;;;;-4.80;100.00;97249.72;5077601;28;20289;-53
2023/12/03 07:23:36;;;;;;;7.17;5.57;;;;;;;-4.70;100.00;97253.75;5079607;28;20228;-54
2023/12/03 07:26:09;;;;;;;6.53;5.47;;;;;;;-4.68;100.00;97249.44;5082161;28;20534;-53
2023/12/03 07:28:35;;;;;;;6.23;5.07;;;;;;;-4.64;100.00;97251.06;5081855;28;20635;-55
2023/12/03 07:31:03;;;;;;;6.63;5.53;;;;;;;-4.59;100.00;97252.63;5081348;28;20289;-52
2023/12/03 07:33:31;;;;;;;6.33;5.73;;;;;;;-4.53;100.00;97255.06;5081756;28;20289;-52
2023/12/03 07:35:58;;;;;;;6.33;5.60;;;;;;;-4.47;100.00;97260.97;5077804;28;20239;-51
2023/12/03 07:38:26;;;;;;;6.03;5.30;;;;;;;-4.46;100.00;97265.25;5075497;28;20562;-53
2023/12/03 07:40:53;;;;;;;7.20;5.90;;;;;;;-4.52;100.00;97261.06;5075282;28;20293;-52
2023/12/03 07:43:20;;;;;;;6.10;5.50;;;;;;;-4.45;100.00;97261.75;5079849;28;20218;-53
2023/12/03 07:45:47;;;;;;;5.73;5.13;;;;;;;-4.46;100.00;97258.31;5073696;28;20525;-54
2023/12/03 07:48:13;;;;;;;6.97;5.77;;;;;;;-4.38;100.00;97259.00;5076421;28;20212;-51
2023/12/03 07:50:41;;;;;;;6.03;5.40;;;;;;;-4.29;100.00;97263.09;5076452;28;20229;-51
2023/12/03 07:53:08;;;;;;;6.63;5.47;;;;;;;-4.44;100.00;97271.22;5076421;28;20210;-51
2023/12/03 07:55:35;;;;;;;5.70;5.20;;;;;;;-4.39;100.00;97266.81;5076907;28;20329;-52
2023/12/03 07:58:02;;;;;;;6.47;4.97;;;;;;;-4.31;100.00;97265.69;5075741;28;20550;-51
2023/12/03 08:00:28;;;;;;;5.80;5.13;;;;;;;-4.30;100.00;97272.56;5068359;28;20238;-52
2023/12/03 08:02:57;;;;;;;5.47;4.97;;;;;;;-4.23;100.00;97268.09;5075540;28;20209;-52
2023/12/03 08:05:24;;;;;;;6.67;5.60;;;;;;;-4.19;100.00;97277.47;5069139;28;20198;-51
2023/12/03 08:07:52;;;;;;;7.87;5.93;;;;;;;-4.12;100.00;97271.25;5068837;28;20305;-53
2023/12/03 08:10:19;;;;;;;6.73;6.03;;;;;;;-4.07;100.00;97277.13;5075359;28;20202;-51
2023/12/03 08:12:45;;;;;;;9.77;6.63;;;;;;;-4.03;100.00;97282.19;5075413;28;20631;-52
2023/12/03 08:15:13;;;;;;;7.67;5.53;;;;;;;-3.98;100.00;97276.06;5080745;28;20612;-52
2023/12/03 08:17:40;;;;;;;6.73;5.90;;;;;;;-3.99;100.00;97272.63;5075208;28;20548;-52
2023/12/03 08:20:07;;;;;;;8.83;6.43;;;;;;;-3.99;100.00;97277.78;5075206;28;20287;-53
2023/12/03 08:22:34;;;;;;;7.30;6.60;;;;;;;-3.82;100.00;97277.34;5075494;28;20217;-52
2023/12/03 08:25:02;;;;;;;9.30;6.57;;;;;;;-3.78;100.00;97278.97;5075806;28;20240;-53
2023/12/03 08:27:29;;;;;;;9.57;7.20;;;;;;;-3.70;100.00;97264.97;5074736;28;20528;-52
2023/12/03 08:29:55;;;;;;;9.67;7.03;;;;;;;-3.74;100.00;97272.81;5081626;28;20202;-53
2023/12/03 08:32:22;;;;;;;8.90;6.87;;;;;;;-3.68;100.00;97273.50;5075364;28;20620;-52
2023/12/03 08:34:48;;;;;;;7.50;6.60;;;;;;;-3.51;100.00;97270.47;5075562;28;20233;-54
2023/12/03 08:37:15;;;;;;;9.67;7.33;;;;;;;-3.40;100.00;97267.59;5075357;28;20614;-53
2023/12/03 08:39:41;;;;;;;10.00;7.40;;;;;;;-3.39;100.00;97272.69;5075699;28;20301;-52
2023/12/03 08:42:09;;;;;;;9.10;7.30;;;;;;;-3.33;100.00;97277.69;5081639;28;20305;-51
2023/12/03 08:44:36;;;;;;;8.40;7.50;;;;;;;-3.23;100.00;97273.97;5076263;28;20216;-54
2023/12/03 08:47:03;;;;;;;9.90;7.97;;;;;;;-3.13;100.00;97275.38;5083166;28;20214;-51
2023/12/03 08:49:30;;;;;;;7.83;6.97;;;;;;;-3.01;100.00;97277.59;5076965;28;20199;-51
2023/12/03 08:51:57;;;;;;;10.37;7.87;;;;;;;-2.90;100.00;97272.09;5082495;28;20256;-51
2023/12/03 08:54:23;;;;;;;10.93;7.57;;;;;;;-2.51;100.00;97272.59;5082787;28;20293;-52
2023/12/03 08:56:50;;;;;;;7.97;6.93;;;;;;;-2.10;100.00;97274.72;5077139;28;20232;-52
2023/12/03 08:59:19;;;;;;;6.87;6.10;;;;;;;-1.57;100.00;97272.03;5075777;28;20213;-52
2023/12/03 09:01:46;;;;;;;8.83;7.60;;;;;;;-1.08;100.00;97264.16;5080309;28;20297;-52
2023/12/03 09:04:13;;;;;;;9.27;7.00;;;;;;;-0.40;100.00;97273.63;5084729;28;20221;-54
2023/12/03 09:06:41;;;;;;;7.33;6.40;;;;;;;0.07;96.93;97265.63;5081665;28;20538;-52
2023/12/03 09:09:07;;;;;;;6.60;5.90;;;;;;;0.43;94.56;97264.91;5078012;28;20274;-53
2023/12/03 09:11:35;;;;;;;7.07;6.37;;;;;;;0.85;92.54;97267.38;5084795;28;20241;-52
2023/12/03 09:14:03;;;;;;;7.50;6.73;;;;;;;1.16;90.28;97258.19;5083788;28;20234;-52
2023/12/03 09:16:31;;;;;;;6.97;6.20;;;;;;;1.31;90.02;97253.06;5076144;28;20234;-53
2023/12/03 09:18:59;;;;;;;6.70;6.00;;;;;;;1.84;87.97;97260.94;5080987;28;20204;-53
2023/12/03 09:21:25;;;;;;;6.60;6.03;;;;;;;2.57;82.85;97259.88;5096021;28;20252;-54
2023/12/03 09:23:52;;;;;;;6.37;5.77;;;;;;;2.23;81.86;97271.16;5095563;28;20234;-54
2023/12/03 09:26:18;;;;;;;7.03;6.33;;;;;;;2.60;81.77;97272.75;5095906;28;20206;-53
2023/12/03 09:28:45;;;;;;;6.73;6.00;;;;;;;2.12;86.55;97272.63;5093733;28;20237;-53
2023/12/03 09:31:12;;;;;;;6.70;6.10;;;;;;;1.85;88.08;97275.66;5094011;28;20266;-54
2023/12/03 09:33:40;;;;;;;7.10;6.40;;;;;;;2.06;89.45;97271.16;5095515;28;20257;-53
2023/12/03 09:36:10;;;;;;;7.93;6.63;;;;;;;2.03;87.48;97275.69;5095528;28;20237;-54
2023/12/03 09:38:36;;;;;;;7.53;6.83;;;;;;;2.19;83.45;97263.59;5097776;28;20222;-53
2023/12/03 09:41:07;;;;;;;8.87;7.87;;;;;;;2.20;85.72;97267.84;5099880;28;20241;-53
2023/12/03 09:43:37;;;;;;;8.73;7.83;;;;;;;2.54;78.81;97275.69;5096907;28;20249;-53
2023/12/03 09:46:05;;;;;;;7.90;7.10;;;;;;;2.65;82.66;97278.59;5117943;28;20221;-52
2023/12/03 09:48:32;;;;;;;7.23;6.53;;;;;;;3.19;80.28;97279.22;5098717;28;20242;-53
2023/12/03 09:51:04;;;;;;;8.67;7.87;;;;;;;3.48;72.64;97281.94;5099992;28;20202;-53
2023/12/03 09:53:32;;;;;;;8.00;7.30;;;;;;;3.39;76.47;97266.75;5098481;28;20186;-53
2023/12/03 09:55:59;;;;;;;9.10;8.30;;;;;;;3.39;77.04;97269.38;5099962;28;20248;-53
2023/12/03 09:58:28;;;;;;;8.37;7.67;;;;;;;3.56;77.63;97272.81;5100092;28;20218;-54
2023/12/03 10:00:55;;;;;;;9.17;8.30;;;;;;;3.60;78.17;97269.97;5098722;28;20238;-54
2023/12/03 10:03:22;;;;;;;10.23;9.33;;;;;;;3.81;76.46;97267.91;5090128;28;20274;-53
2023/12/03 10:05:49;;;;;;;10.00;9.00;;;;;;;3.38;79.47;97274.66;5091490;28;20730;-52
2023/12/03 10:08:17;;;;;;;9.07;8.23;;;;;;;3.35;79.22;97282.69;5093682;28;20214;-53
2023/12/03 10:10:44;;;;;;;9.37;8.53;;;;;;;3.70;77.25;97278.97;5087441;28;20211;-53
2023/12/03 10:13:11;;;;;;;9.70;8.77;;;;;;;3.84;78.20;97273.81;5080803;28;20214;-52
2023/12/03 10:15:38;;;;;;;10.70;9.67;;;;;;;4.29;76.14;97274.72;5090988;28;20234;-54
2023/12/03 10:18:05;;;;;;;10.30;9.30;;;;;;;4.16;75.51;97271.97;5091356;28;20234;-54
2023/12/03 10:20:32;;;;;;;10.70;9.43;;;;;;;4.17;75.83;97270.19;5096823;28;20206;-52
2023/12/03 10:23:00;;;;;;;9.27;8.43;;;;;;;4.13;77.41;97266.06;5092131;28;20209;-53
2023/12/03 10:25:30;;;;;;;11.20;10.10;;;;;;;4.16;77.47;97261.50;5099297;28;20278;-53
2023/12/03 10:27:57;;;;;;;10.30;9.30;;;;;;;4.60;75.73;97263.28;5098533;28;20225;-53
2023/12/03 10:30:25;;;;;;;10.60;9.60;;;;;;;4.42;75.46;97255.59;5077863;28;20232;-53
2023/12/03 10:32:55;;;;;;;10.40;9.40;;;;;;;4.21;74.88;97253.38;5078105;28;20207;-53
2023/12/03 10:35:21;;;;;;;10.30;9.30;;;;;;;4.15;77.17;97254.56;5078074;28;20278;-53
2023/12/03 10:37:48;;;;;;;10.60;9.60;;;;;;;4.59;75.81;97251.13;5077236;28;20226;-54
2023/12/03 10:40:15;;;;;;;10.65;9.65;;;;;;;4.47;75.11;97250.06;5077583;28;20293;-53
2023/12/03 10:42:44;;;;;;;11.30;10.25;;;;;;;4.59;74.16;97246.72;5077446;28;20214;-53
2023/12/03 10:45:13;;;;;;;10.80;9.80;;;;;;;4.05;77.29;97242.09;5070945;28;20268;-53
2023/12/03 10:47:40;;;;;;;10.93;9.83;;;;;;;3.40;78.42;97241.47;5082939;28;20233;-52
2023/12/03 10:50:08;;;;;;;10.40;9.40;;;;;;;3.37;79.70;97241.59;5076552;28;20207;-52
2023/12/03 10:52:36;;;;;;;11.17;9.97;;;;;;;2.64;85.81;97237.72;5076400;28;20211;-54
2023/12/03 10:55:03;;;;;;;10.83;9.73;;;;;;;1.93;90.88;97239.63;5076916;28;20206;-53
2023/12/03 10:57:32;;;;;;;11.33;10.20;;;;;;;1.67;92.17;97234.84;5077229;28;20236;-53
2023/12/03 11:00:05;;;;;;;11.43;9.80;;;;;;;1.12;94.41;97226.22;5076663;28;20325;-52
2023/12/03 11:02:40;;;;;;;10.47;9.27;;;;;;;0.96;97.56;97233.88;5077506;28;20214;-53
2023/12/03 11:05:07;;;;;;;9.60;8.67;;;;;;;0.88;99.44;97228.19;5077405;28;20213;-53
2023/12/03 11:07:34;;;;;;;10.03;9.00;;;;;;;0.66;100.00;97235.28;5076035;28;20210;-53
2023/12/03 11:10:01;;;;;;;9.60;8.63;;;;;;;0.52;100.00;97232.44;5076544;28;20221;-53
2023/12/03 11:12:28;;;;;;;10.50;9.13;;;;;;;0.38;100.00;97227.84;5077581;28;20206;-51
2023/12/03 11:14:55;;;;;;;9.57;8.67;;;;;;;0.28;100.00;97236.13;5083086;28;20305;-52
2023/12/03 11:17:31;;;;;;;10.70;9.37;;;;;;;0.28;100.00;97234.38;5076904;28;20234;-53
2023/12/03 11:20:04;;;;;;;10.70;9.63;;;;;;;0.23;100.00;97236.31;5076686;28;20208;-51
2023/12/03 11:22:42;;;;;;;10.97;9.67;;;;;;;0.23;100.00;97232.88;5071974;28;20203;-51
2023/12/03 11:25:13;;;;;;;11.50;9.83;;;;;;;0.27;100.00;97231.81;5072160;28;20202;-53